createdAt,value
2018-05-04T00:00:02.562Z,13.6
2018-05-04T00:15:02.863Z,13.3
2018-05-04T00:30:03.201Z,13.3
2018-05-04T00:45:02.490Z,12.8
2018-05-04T01:00:02.739Z,12.9
2018-05-04T01:15:02.965Z,12.8
2018-05-04T01:30:02.346Z,13.1
2018-05-04T01:45:02.566Z,13.2
2018-05-04T02:00:02.776Z,13.2
2018-05-04T02:15:03.022Z,12.9
2018-05-04T02:30:02.467Z,12.9
2018-05-04T02:45:02.758Z,12.6
2018-05-04T03:00:03.000Z,12.3
2018-05-04T03:15:02.259Z,12.4
2018-05-04T03:30:02.687Z,12.6
2018-05-04T03:45:02.902Z,12.5
2018-05-04T04:00:03.296Z,12.4
2018-05-04T04:15:02.595Z,12.4
2018-05-04T04:30:02.889Z,12.6
2018-05-04T04:45:03.105Z,12.5
2018-05-04T05:00:02.392Z,12.6
2018-05-04T05:15:02.610Z,12.8
2018-05-04T05:30:03.004Z,13.1
2018-05-04T05:45:02.356Z,13.4
2018-05-04T06:00:02.870Z,13.6
2018-05-04T06:15:03.227Z,13.6
2018-05-04T06:30:02.699Z,13.8
2018-05-04T06:45:02.918Z,13.8
2018-05-04T07:00:03.571Z,14.1
2018-05-04T07:15:02.933Z,14.1
2018-05-04T07:30:02.392Z,14.3
2018-05-04T07:45:02.672Z,14.6
2018-05-04T08:00:02.904Z,14.9
2018-05-04T08:15:03.131Z,14.8
2018-05-04T08:30:02.471Z,14.7
2018-05-04T08:45:02.761Z,14.7
2018-05-04T09:00:02.998Z,15.5
2018-05-04T09:15:02.326Z,15.8
2018-05-04T09:30:02.757Z,16.2
2018-05-04T09:45:02.990Z,17
2018-05-04T10:00:02.312Z,17.6
2018-05-04T10:15:02.708Z,17.1
2018-05-04T10:30:03.131Z,17.2
2018-05-04T10:45:02.477Z,17.2
2018-05-04T11:00:02.805Z,17.5
2018-05-04T11:15:03.069Z,17.4
2018-05-04T11:30:02.440Z,19
2018-05-04T11:45:02.760Z,18.8
2018-05-04T12:00:03.092Z,19
2018-05-04T12:15:02.425Z,20.3
2018-05-04T12:30:02.696Z,21.4
2018-05-04T12:45:02.970Z,19.4
2018-05-04T13:00:02.286Z,21.1
2018-05-04T13:15:02.646Z,20.3
2018-05-04T13:30:02.971Z,20.7
2018-05-04T13:45:02.303Z,20.5
2018-05-04T14:00:02.556Z,20.3
2018-05-04T14:15:03.045Z,19.6
2018-05-04T14:30:02.494Z,19.8
2018-05-04T14:45:02.835Z,20
2018-05-04T15:00:03.078Z,20.6
2018-05-04T15:15:02.437Z,19.8
2018-05-04T15:30:02.758Z,19.6
2018-05-04T15:45:03.074Z,19.4
2018-05-04T16:00:02.562Z,19
2018-05-04T16:15:02.855Z,18.7
2018-05-04T16:30:03.338Z,19.2
2018-05-04T16:45:02.875Z,18.6
2018-05-04T17:00:03.238Z,18.6
2018-05-04T17:15:02.587Z,18.4
2018-05-04T17:30:02.882Z,17.9
2018-05-04T17:45:03.128Z,17.5
2018-05-04T18:00:02.398Z,17.3
2018-05-04T18:15:02.656Z,16.6
2018-05-04T18:30:02.995Z,16.5
2018-05-04T18:45:02.410Z,15.9
2018-05-04T19:00:02.818Z,15.4
2018-05-04T19:15:03.082Z,14.9
2018-05-04T19:30:02.445Z,14.7
2018-05-04T19:45:02.676Z,14.8
2018-05-04T20:00:02.893Z,14.7
2018-05-04T20:15:03.100Z,14.4
2018-05-04T20:30:02.448Z,14.5
2018-05-04T20:45:02.739Z,14.4
2018-05-04T21:00:02.978Z,14.9
2018-05-04T21:15:02.282Z,14.2
2018-05-04T21:30:02.590Z,14.8
2018-05-04T21:45:02.878Z,14.8
2018-05-04T22:00:03.252Z,14.7
2018-05-04T22:15:02.608Z,14.8
2018-05-04T22:30:02.900Z,14.5
2018-05-04T22:45:03.244Z,13.9
2018-05-04T23:00:02.549Z,14.1
2018-05-04T23:15:02.825Z,13.8
2018-05-04T23:30:03.150Z,13.7
2018-05-04T23:45:02.449Z,13.9
